Terminal Aerodrome Forecast
Issued by NWS

Current Version | Previous Version | Text Only | Print | Product List | Glossary On
Versions: 1 2 3 4 5 6 7 8 9 10 11 12 13 14 15 16 17 18
000
FTUS42 KFFC 311500 AAB
TAFRYY
TAF AMD
KRYY 311528Z 3115/0112 VRB05KT P6SM SCT040 BKN150
      TEMPO 3115/3117 BKN015
     FM311800 06006KT P6SM BKN050
     FM010000 07005KT P6SM BKN150
     FM010900 06008KT 6SM BR BKN008 PROB30 0109/0112 4SM -RA BR=

USA.gov is the U.S. government's official web portal to all federal, state and local government web resources and services.